Terminal Aerodrome Forecast
Issued by NWS

Current Version | Previous Version | Text Only | Print | Product List | Glossary On
Versions: 1 2 3 4 5 6 7 8 9 10 11 12 13
000
FTUS41 KLWX 301100
TAFMTN
TAF
KMTN 301120Z 3012/0112 00000KT 3SM BR BKN003 OVC025
     FM301300 00000KT P6SM BKN025 OVC050
     FM301500 00000KT P6SM FEW050 SCT090
     FM010300 09004KT P6SM BKN090=

USA.gov is the U.S. government's official web portal to all federal, state and local government web resources and services.